Chicago O'Hare International Airport
KORD : now visible

Airfield :











YOU CAN JOIN US ON...

 
LOGIN :

Register | Disclaimer

   EN    FR    IT 

 









Legend :    VFR   Marginal VFR   IFR   Intensive IFR   Very Intensive IFR
Visi :
Ceiling :
>= 8 km
>= 3000ft
5 to 8 km
1000 to 3000 ft
1500m to 5 km
500 to 1000 ft
800 to 1500m
200 to 500 ft
< 800m
< 200 ft
Symbols :   Thunderstorms  Fog  Heavy snow  Heavy precipitations  Wind > 20 kt






- Airport Elevation : 672 ft
- IATA code : ORD


KORD - Chicago O'Hare International

CURRENT METAR :
  • 300851Z 00000KT 10SM CLR 09/06 A3032 RMK AO2 SLP267 T00890061 55001

EXPIRED METARs :
  • 300751Z 00000KT 10SM FEW250 09/07 A3032 RMK AO2 SLP267 T00940067
  • 300651Z 00000KT 10SM FEW250 11/07 A3032 RMK AO2 SLP268 T01060072

TAF KORD
Valid from the 30 at 09:00 until the 01 at 12:00 UTC


300854Z 3009/0112 VRB04KT P6SM FEW250
FM301600 07008KT P6SM FEW030
KZAU FIR / North America



MET'MAP, your aeronautical weather chart ! - Copyright ORBIFLY December 2007 - Disclaimer

ORBIFLY MET'MAP TEAM :

Programming & Development : Alexandra Zaïnal
Original concept : Baudouin d'Aumeries
Technical & hardware support : Manuel Goepfert
Assistance : Marc-Olivier Méhu




SOURCES & CREDITS :

   NOAA       Earth
Advisory